createdAt,value
2019-01-31T00:02:58.287Z,96113.19
2019-01-31T00:08:11.948Z,96108.69
2019-01-31T00:13:25.223Z,96116.24
2019-01-31T00:18:38.524Z,96125.44
2019-01-31T00:24:04.571Z,96125.62
2019-01-31T00:29:24.468Z,96114.77
2019-01-31T00:35:06.688Z,96123.24
2019-01-31T00:40:20.441Z,96114.66
2019-01-31T00:45:30.916Z,96108.47
2019-01-31T00:51:00.024Z,96112.03
2019-01-31T00:56:07.848Z,96119.13
2019-01-31T01:01:43.003Z,96126.38
2019-01-31T01:06:56.553Z,96119.38
2019-01-31T01:12:32.633Z,96106.23
2019-01-31T01:17:40.361Z,96113.48
2019-01-31T01:22:53.890Z,96110.08
2019-01-31T01:28:04.602Z,96108.84
2019-01-31T01:33:24.060Z,96119.84
2019-01-31T01:38:34.538Z,96124.10
2019-01-31T01:44:06.929Z,96118.28
2019-01-31T01:49:17.161Z,96117.12
2019-01-31T01:54:41.404Z,96128.33
2019-01-31T02:00:04.067Z,96115.64
2019-01-31T02:05:23.941Z,96112.19
2019-01-31T02:10:37.309Z,96111.98
2019-01-31T02:15:50.962Z,96107.79
2019-01-31T02:21:14.034Z,96107.31
2019-01-31T02:26:24.611Z,96098.47
2019-01-31T02:31:38.150Z,96105.38
2019-01-31T02:36:54.576Z,96101.38
2019-01-31T02:42:31.439Z,96117.33
2019-01-31T02:47:57.517Z,96116.39
2019-01-31T02:53:22.020Z,96116.69
2019-01-31T02:58:52.468Z,96110.80
2019-01-31T03:04:29.258Z,96112.22
2019-01-31T03:09:55.025Z,96123.92
2019-01-31T03:14:58.303Z,96125.30
2019-01-31T03:20:06.221Z,96121.17
2019-01-31T03:25:22.949Z,96115.09
2019-01-31T03:30:47.363Z,96106.02
2019-01-31T03:36:04.174Z,96110.45
2019-01-31T03:41:32.775Z,96117.12
2019-01-31T03:46:55.542Z,96113.08
2019-01-31T03:52:08.869Z,96107.48
2019-01-31T03:57:16.700Z,96110.42
2019-01-31T04:02:30.661Z,96112.23
2019-01-31T04:07:36.330Z,96124.98
2019-01-31T04:12:41.069Z,96118.36
2019-01-31T04:17:45.810Z,96122.31
2019-01-31T04:22:50.779Z,96126.60
2019-01-31T04:27:55.399Z,96122.78
2019-01-31T04:33:00.141Z,96118.39
2019-01-31T04:38:04.988Z,96116.58
2019-01-31T04:43:09.619Z,96122.48
2019-01-31T04:48:14.371Z,96127.77
2019-01-31T04:53:18.999Z,96119.31
2019-01-31T04:58:23.647Z,96109.48
2019-01-31T05:03:28.599Z,96105.66
2019-01-31T05:08:34.452Z,96094.24
2019-01-31T05:13:39.415Z,96089.48
2019-01-31T05:18:44.053Z,96095.64
2019-01-31T05:23:48.901Z,96108.29
2019-01-31T05:28:53.641Z,96099.31
2019-01-31T05:33:58.488Z,96103.30
2019-01-31T05:39:04.355Z,96108.69
2019-01-31T05:44:09.110Z,96111.20
2019-01-31T05:49:13.950Z,96125.71
2019-01-31T05:54:18.684Z,96141.16
2019-01-31T05:59:23.535Z,96144.90
2019-01-31T06:04:28.176Z,96154.41
2019-01-31T06:09:32.810Z,96146.91
2019-01-31T06:14:42.577Z,96158.97
2019-01-31T06:19:51.904Z,96148.05
2019-01-31T06:25:01.537Z,96155.58
2019-01-31T06:30:14.097Z,96152.67
2019-01-31T06:35:19.873Z,96152.31
2019-01-31T06:40:24.615Z,96152.54
2019-01-31T06:45:29.240Z,96149.88
2019-01-31T06:50:33.898Z,96145.92
2019-01-31T06:55:38.637Z,96157.40
2019-01-31T07:00:43.481Z,96167.84
2019-01-31T07:05:48.228Z,96174.30
2019-01-31T07:10:52.860Z,96177.55
2019-01-31T07:15:57.624Z,96185.67
2019-01-31T07:21:02.353Z,96178.11
2019-01-31T07:26:07.001Z,96174.09
2019-01-31T07:31:11.738Z,96171.49
2019-01-31T07:57:03.051Z,96151.73
2019-01-31T08:02:07.800Z,96155.05
2019-01-31T08:07:12.538Z,96160.08
2019-01-31T08:12:17.302Z,96151.06
2019-01-31T08:17:21.922Z,96150.34
2019-01-31T09:29:54.542Z,96117.24
2019-01-31T09:35:11.166Z,96112.22
2019-01-31T09:40:37.545Z,96111.38
2019-01-31T09:45:54.240Z,96107.48
2019-01-31T09:51:17.006Z,96101.66
2019-01-31T09:56:43.149Z,96105.73
2019-01-31T10:02:10.417Z,96102.39
2019-01-31T10:07:39.541Z,96094.30
2019-01-31T10:12:50.125Z,96089.43
2019-01-31T10:18:28.387Z,96080.84
2019-01-31T10:24:06.677Z,96079.58
2019-01-31T10:29:18.897Z,96070.09
2019-01-31T10:34:32.747Z,96076.18
2019-01-31T10:39:52.751Z,96065.05
2019-01-31T10:45:09.575Z,96064.86
2019-01-31T10:50:48.010Z,96066.86
2019-01-31T10:56:01.865Z,96072.73
2019-01-31T11:01:18.488Z,96071.91
2019-01-31T11:06:52.207Z,96073.56
2019-01-31T11:12:04.431Z,96069.91
2019-01-31T11:17:12.348Z,96069.20
2019-01-31T11:22:28.325Z,96071.81
2019-01-31T11:27:56.935Z,96066.33
2019-01-31T11:33:07.434Z,96069.61
2019-01-31T11:38:27.434Z,96071.29
2019-01-31T11:43:40.886Z,96066.31
2019-01-31T11:48:54.427Z,96058.28
2019-01-31T11:54:07.879Z,96046.77
2019-01-31T11:59:12.620Z,96048.45
2019-01-31T12:04:17.473Z,96038.55
2019-01-31T12:09:22.217Z,96040.41
2019-01-31T12:14:27.065Z,96036.19
2019-01-31T12:19:31.595Z,96032.23
2019-01-31T12:24:36.842Z,96026.53
2019-01-31T12:29:41.421Z,96023.11
2019-01-31T12:34:46.129Z,96021.20
2019-01-31T12:39:52.166Z,96022.68
2019-01-31T12:44:57.049Z,96024.91
2019-01-31T12:50:01.793Z,96029.05
2019-01-31T12:55:07.202Z,96031.45
2019-01-31T13:24:53.810Z,96033.52
2019-01-31T13:29:58.727Z,96043.53
2019-01-31T13:35:03.703Z,96048.86
2019-01-31T13:40:16.741Z,96046.97
2019-01-31T13:45:27.890Z,96050.34
2019-01-31T13:50:32.786Z,96043.95
2019-01-31T13:55:37.674Z,96058.52
2019-01-31T14:00:42.679Z,96060.05
2019-01-31T14:05:47.434Z,96055.59
2019-01-31T14:10:52.165Z,96059.03
2019-01-31T14:15:57.121Z,96065.05
2019-01-31T14:21:01.961Z,96070.47
2019-01-31T14:26:06.706Z,96084.44
2019-01-31T14:31:11.547Z,96097.44
2019-01-31T14:36:16.394Z,96102.52
2019-01-31T14:41:21.055Z,96091.13
2019-01-31T14:46:25.939Z,96095.03
2019-01-31T14:51:30.825Z,96105.89
2019-01-31T14:56:35.576Z,96120.30
2019-01-31T15:01:40.310Z,96136.53
2019-01-31T15:06:45.917Z,96142.94
2019-01-31T15:11:50.721Z,96130.05
2019-01-31T15:16:56.080Z,96143.92
2019-01-31T15:22:00.841Z,96148.05
2019-01-31T15:27:05.566Z,96152.24
2019-01-31T15:32:11.201Z,96158.91
2019-01-31T15:37:17.102Z,96167.59
2019-01-31T15:42:21.845Z,96173.08
2019-01-31T15:47:26.587Z,96184.96
2019-01-31T15:52:31.326Z,96197.85
2019-01-31T15:57:35.959Z,96198.62
2019-01-31T16:02:40.711Z,96210.14
2019-01-31T16:07:45.557Z,96222.39
2019-01-31T16:12:50.326Z,96236.41
2019-01-31T16:17:55.147Z,96237.44
2019-01-31T16:22:59.887Z,96249.47
2019-01-31T16:28:04.941Z,96256.08
2019-01-31T16:33:09.683Z,96261.62
2019-01-31T16:38:14.332Z,96269.11
2019-01-31T16:43:19.172Z,96282.56
2019-01-31T16:48:24.329Z,96292.94
2019-01-31T16:53:29.064Z,96302.67
2019-01-31T16:58:34.022Z,96305.63
2019-01-31T17:03:38.612Z,96311.87
2019-01-31T17:08:43.496Z,96322.92
2019-01-31T17:13:49.368Z,96330.62
2019-01-31T17:18:54.980Z,96346.88
2019-01-31T17:24:00.084Z,96353.36
2019-01-31T17:29:05.043Z,96366.36
2019-01-31T17:34:09.877Z,96388.09
2019-01-31T17:39:15.026Z,96398.01
2019-01-31T17:44:19.872Z,96417.63
2019-01-31T17:49:25.744Z,96422.77
2019-01-31T17:54:30.813Z,96435.13
2019-01-31T17:59:36.150Z,96450.98
2019-01-31T18:04:40.893Z,96463.70
2019-01-31T18:09:47.096Z,96474.27
2019-01-31T18:14:51.813Z,96486.15
2019-01-31T18:19:57.418Z,96493.73
2019-01-31T18:25:02.029Z,96506.40
2019-01-31T18:30:09.830Z,96523.23
2019-01-31T18:35:15.011Z,96520.37
2019-01-31T18:40:24.848Z,96522.39
2019-01-31T18:45:32.155Z,96531.17
2019-01-31T18:50:39.416Z,96542.81
2019-01-31T18:55:44.302Z,96550.19
2019-01-31T19:00:49.456Z,96548.84
2019-01-31T19:05:54.563Z,96563.51
2019-01-31T19:11:01.251Z,96570.23
2019-01-31T19:16:06.243Z,96578.86
2019-01-31T19:21:11.103Z,96581.47
2019-01-31T19:26:15.831Z,96581.30
2019-01-31T19:31:21.084Z,96586.48
2019-01-31T19:36:25.829Z,96587.53
2019-01-31T19:41:30.528Z,96588.94
2019-01-31T19:46:36.239Z,96591.48
2019-01-31T19:51:40.965Z,96596.34
2019-01-31T19:56:45.818Z,96598.45
2019-01-31T20:01:51.591Z,96605.50
2019-01-31T20:06:56.454Z,96610.26
2019-01-31T20:12:01.280Z,96615.19
2019-01-31T20:17:08.553Z,96626.83
2019-01-31T20:22:13.426Z,96635.16
2019-01-31T20:27:18.274Z,96633.92
2019-01-31T20:32:23.124Z,96643.09
2019-01-31T20:37:28.273Z,96653.57
2019-01-31T20:42:33.014Z,96655.97
2019-01-31T20:47:37.868Z,96666.81
2019-01-31T20:52:43.007Z,96677.98
2019-01-31T20:57:47.957Z,96684.16
2019-01-31T21:02:53.946Z,96687.56
2019-01-31T21:07:58.672Z,96700.08
2019-01-31T21:13:03.398Z,96702.70
2019-01-31T21:18:08.362Z,96709.67
2019-01-31T21:23:14.235Z,96721.63
2019-01-31T21:28:18.974Z,96723.56
2019-01-31T21:33:23.734Z,96739.20
2019-01-31T21:38:28.464Z,96740.23
2019-01-31T21:43:34.737Z,96757.64
2019-01-31T21:48:39.787Z,96760.85
2019-01-31T21:53:44.637Z,96776.72
2019-01-31T21:58:49.382Z,96775.48
2019-01-31T22:03:54.225Z,96791.10
2019-01-31T22:08:58.759Z,96801.68
2019-01-31T22:14:03.400Z,96804.46
2019-01-31T22:19:08.139Z,96807.42
2019-01-31T22:24:12.886Z,96814.00
2019-01-31T22:29:17.624Z,96815.44
2019-01-31T22:34:22.375Z,96820.88
2019-01-31T22:39:27.215Z,96824.85
2019-01-31T22:44:32.067Z,96823.24
2019-01-31T22:49:36.914Z,96826.42
2019-01-31T22:54:41.712Z,96834.53
2019-01-31T22:59:46.492Z,96840.17
2019-01-31T23:04:53.387Z,96834.88
2019-01-31T23:09:58.439Z,96834.05
2019-01-31T23:15:03.185Z,96837.08
2019-01-31T23:20:11.199Z,96835.98
2019-01-31T23:25:16.141Z,96834.92
2019-01-31T23:30:20.954Z,96834.36
2019-01-31T23:35:25.754Z,96838.33
2019-01-31T23:40:30.471Z,96843.79
2019-01-31T23:45:35.120Z,96846.16
2019-01-31T23:50:39.859Z,96846.37
2019-01-31T23:55:44.498Z,96857.58
